createdAt,value
2023-04-16T00:00:39.391Z,25.38
2023-04-16T00:01:39.478Z,25.38
2023-04-16T00:02:39.608Z,25.38
2023-04-16T00:03:39.767Z,25.38
2023-04-16T00:04:39.727Z,25.38
2023-04-16T00:05:39.730Z,25.38
2023-04-16T00:06:39.733Z,25.37
2023-04-16T00:07:39.793Z,25.37
2023-04-16T00:08:39.843Z,25.37
2023-04-16T00:09:39.917Z,25.36
2023-04-16T00:10:39.930Z,25.37
2023-04-16T00:11:40.036Z,25.37
2023-04-16T00:12:40.026Z,25.36
2023-04-16T00:13:40.161Z,25.36
2023-04-16T00:14:40.133Z,25.36
2023-04-16T00:15:40.260Z,25.36
2023-04-16T00:16:40.286Z,25.36
2023-04-16T00:17:40.333Z,25.36
2023-04-16T00:18:40.380Z,25.35
2023-04-16T00:19:40.426Z,25.35
2023-04-16T00:20:40.493Z,25.35
2023-04-16T00:21:40.550Z,25.35
2023-04-16T00:22:40.608Z,25.35
2023-04-16T00:23:40.653Z,25.34
2023-04-16T00:24:40.732Z,25.34
2023-04-16T00:25:40.833Z,25.34
2023-04-16T00:26:40.848Z,25.34
2023-04-16T00:27:40.910Z,25.34
2023-04-16T00:28:41.022Z,25.33
2023-04-16T00:29:40.990Z,25.33
2023-04-16T00:30:41.106Z,25.33
2023-04-16T00:31:41.113Z,25.33
2023-04-16T00:32:41.192Z,25.33
2023-04-16T00:33:41.255Z,25.33
2023-04-16T00:34:41.298Z,25.32
2023-04-16T00:35:41.422Z,25.32
2023-04-16T00:36:41.417Z,25.32
2023-04-16T00:37:41.451Z,25.32
2023-04-16T00:38:41.530Z,25.31
2023-04-16T00:39:41.651Z,25.32
2023-04-16T00:40:41.650Z,25.31
2023-04-16T00:41:41.766Z,25.31
2023-04-16T00:42:41.779Z,25.31
2023-04-16T00:43:41.819Z,25.31
2023-04-16T00:44:41.884Z,25.31
2023-04-16T00:45:41.998Z,25.31
2023-04-16T00:46:42.141Z,25.31
2023-04-16T00:47:42.171Z,25.30
2023-04-16T00:48:42.209Z,25.31
2023-04-16T00:49:42.221Z,25.30
2023-04-16T00:50:42.270Z,25.30
2023-04-16T00:51:42.340Z,25.30
2023-04-16T00:52:42.403Z,25.30
2023-04-16T00:53:42.457Z,25.29
2023-04-16T00:54:42.490Z,25.29
2023-04-16T00:55:42.688Z,25.29
2023-04-16T00:56:42.620Z,25.29
2023-04-16T00:57:42.686Z,25.29
2023-04-16T00:58:42.751Z,25.29
2023-04-16T00:59:42.761Z,25.28
2023-04-16T01:00:42.867Z,25.29
2023-04-16T01:01:42.937Z,25.28
2023-04-16T01:02:43.140Z,25.28
2023-04-16T01:03:43.250Z,25.28
2023-04-16T01:04:43.074Z,25.28
2023-04-16T01:05:43.149Z,25.27
2023-04-16T01:06:43.181Z,25.27
2023-04-16T01:07:43.266Z,25.28
2023-04-16T01:08:43.332Z,25.27
2023-04-16T01:09:43.390Z,25.27
2023-04-16T01:10:43.412Z,25.26
2023-04-16T01:11:43.502Z,25.27
2023-04-16T01:12:43.532Z,25.27
2023-04-16T01:13:43.633Z,25.26
2023-04-16T01:14:43.734Z,25.26
2023-04-16T01:15:43.836Z,25.25
2023-04-16T01:16:43.801Z,25.26
2023-04-16T01:17:43.886Z,25.26
2023-04-16T01:18:43.959Z,25.25
2023-04-16T01:19:43.968Z,25.25
2023-04-16T01:20:44.073Z,25.25
2023-04-16T01:21:44.120Z,25.24
2023-04-16T01:22:44.151Z,25.24
2023-04-16T01:23:44.261Z,25.24
2023-04-16T01:24:44.310Z,25.24
2023-04-16T01:25:44.348Z,25.24
2023-04-16T01:26:44.422Z,25.24
2023-04-16T01:27:44.468Z,25.24
2023-04-16T01:28:44.500Z,25.24
2023-04-16T01:29:44.580Z,25.24
2023-04-16T01:30:44.711Z,25.23
2023-04-16T01:31:44.828Z,25.23
2023-04-16T01:32:44.792Z,25.23
2023-04-16T01:33:44.789Z,25.23
2023-04-16T01:34:44.923Z,25.23
2023-04-16T01:35:44.889Z,25.23
2023-04-16T01:36:45.005Z,25.23
2023-04-16T01:37:45.028Z,25.23
2023-04-16T01:38:45.047Z,25.23
2023-04-16T01:39:45.229Z,25.23
2023-04-16T01:40:45.189Z,25.22
2023-04-16T01:41:45.241Z,25.22
2023-04-16T01:42:45.310Z,25.22
2023-04-16T01:43:45.369Z,25.22
2023-04-16T01:44:45.408Z,25.22
2023-04-16T01:45:45.469Z,25.21
2023-04-16T01:46:45.526Z,25.21
2023-04-16T01:47:45.567Z,25.22
2023-04-16T01:48:45.645Z,25.21
2023-04-16T01:49:45.782Z,25.21
2023-04-16T01:50:45.741Z,25.21
2023-04-16T01:51:45.836Z,25.21
2023-04-16T01:52:45.863Z,25.21
2023-04-16T01:53:45.935Z,25.21
2023-04-16T01:54:45.988Z,25.20
2023-04-16T01:55:46.044Z,25.20
2023-04-16T01:56:46.112Z,25.20
2023-04-16T01:57:46.149Z,25.20
2023-04-16T01:58:46.220Z,25.20
2023-04-16T01:59:46.249Z,25.20
2023-04-16T02:00:46.367Z,25.20
2023-04-16T02:01:46.430Z,25.20
2023-04-16T02:02:46.708Z,25.19
2023-04-16T02:03:46.651Z,25.20
2023-04-16T02:04:46.545Z,25.19
2023-04-16T02:05:46.637Z,25.19
2023-04-16T02:06:46.662Z,25.19
2023-04-16T02:07:46.743Z,25.18
2023-04-16T02:08:46.786Z,25.18
2023-04-16T02:09:46.820Z,25.18
2023-04-16T02:10:46.989Z,25.17
2023-04-16T02:11:46.928Z,25.18
2023-04-16T02:12:47.044Z,25.18
2023-04-16T02:13:47.113Z,25.17
2023-04-16T02:14:47.128Z,25.16
2023-04-16T02:15:47.146Z,25.17
2023-04-16T02:16:47.250Z,25.17
2023-04-16T02:17:47.287Z,25.17
2023-04-16T02:18:47.336Z,25.17
2023-04-16T02:19:47.373Z,25.17
2023-04-16T02:20:47.404Z,25.16
2023-04-16T02:21:47.494Z,25.17
2023-04-16T02:22:47.541Z,25.16
2023-04-16T02:23:47.643Z,25.16
2023-04-16T02:24:47.687Z,25.16
2023-04-16T02:25:47.763Z,25.16
2023-04-16T02:26:47.748Z,25.16
2023-04-16T02:27:47.864Z,25.16
2023-04-16T02:28:47.888Z,25.16
2023-04-16T02:29:47.955Z,25.15
2023-04-16T02:30:48.040Z,25.15
2023-04-16T02:31:48.112Z,25.15
2023-04-16T02:32:48.156Z,25.15
2023-04-16T02:33:48.159Z,25.14
2023-04-16T02:34:48.146Z,25.15
2023-04-16T02:35:48.195Z,25.15
2023-04-16T02:36:48.226Z,25.14
2023-04-16T02:37:48.275Z,25.14
2023-04-16T02:38:48.286Z,25.15
2023-04-16T02:39:48.324Z,25.14
2023-04-16T02:40:48.326Z,25.14
2023-04-16T02:41:48.351Z,25.13
2023-04-16T02:42:48.408Z,25.14
2023-04-16T02:43:48.466Z,25.14
2023-04-16T02:44:48.451Z,25.14
2023-04-16T02:45:48.452Z,25.14
2023-04-16T02:46:48.433Z,25.14
2023-04-16T02:47:48.506Z,25.14
2023-04-16T02:48:48.508Z,25.13
2023-04-16T02:49:48.485Z,25.14
2023-04-16T02:50:48.498Z,25.13
2023-04-16T02:51:48.501Z,25.13
2023-04-16T02:52:48.612Z,25.12
2023-04-16T02:53:48.552Z,25.12
2023-04-16T02:54:48.604Z,25.13
2023-04-16T02:55:48.623Z,25.12
2023-04-16T02:56:48.651Z,25.12
2023-04-16T02:57:48.685Z,25.12
2023-04-16T02:58:48.725Z,25.12
2023-04-16T02:59:48.742Z,25.12
2023-04-16T03:00:48.743Z,25.12
2023-04-16T03:01:48.813Z,25.12
2023-04-16T03:02:48.945Z,25.12
2023-04-16T03:03:48.828Z,25.12
2023-04-16T03:04:48.762Z,25.11
2023-04-16T03:05:48.805Z,25.11
2023-04-16T03:06:48.811Z,25.11
2023-04-16T03:07:48.880Z,25.11
2023-04-16T03:08:48.817Z,25.10
2023-04-16T03:09:48.833Z,25.11
2023-04-16T03:10:48.880Z,25.10
2023-04-16T03:11:48.846Z,25.10
2023-04-16T03:12:48.934Z,25.10
2023-04-16T03:13:48.928Z,25.10
2023-04-16T03:14:48.933Z,25.09
2023-04-16T03:15:49.024Z,25.10
2023-04-16T03:16:49.162Z,25.10
2023-04-16T03:17:49.131Z,25.09
2023-04-16T03:18:49.067Z,25.09
2023-04-16T03:19:49.110Z,25.09
2023-04-16T03:20:49.116Z,25.09
2023-04-16T03:21:49.142Z,25.09
2023-04-16T03:22:49.138Z,25.09
2023-04-16T03:23:49.132Z,25.09
2023-04-16T03:24:49.160Z,25.09
2023-04-16T03:25:49.225Z,25.09
2023-04-16T03:26:49.225Z,25.08
2023-04-16T03:27:49.264Z,25.08
2023-04-16T03:28:49.283Z,25.08
2023-04-16T03:29:49.281Z,25.08
2023-04-16T03:30:49.305Z,25.08
2023-04-16T03:31:49.272Z,25.07
2023-04-16T03:32:49.322Z,25.08
2023-04-16T03:33:49.351Z,25.08
2023-04-16T03:34:49.340Z,25.08
2023-04-16T03:35:49.331Z,25.08
2023-04-16T03:36:49.375Z,25.08
2023-04-16T03:37:49.333Z,25.07
2023-04-16T03:38:49.334Z,25.07
2023-04-16T03:39:49.396Z,25.07
2023-04-16T03:40:49.419Z,25.07
2023-04-16T03:41:49.435Z,25.07
2023-04-16T03:42:49.504Z,25.07
2023-04-16T03:43:49.486Z,25.07
2023-04-16T03:44:49.471Z,25.07
2023-04-16T03:45:49.490Z,25.07
2023-04-16T03:46:49.537Z,25.07
2023-04-16T03:47:49.506Z,25.07
2023-04-16T03:48:49.521Z,25.07
2023-04-16T03:49:49.536Z,25.07
2023-04-16T03:50:49.532Z,25.07
2023-04-16T03:51:49.489Z,25.06
2023-04-16T03:52:49.600Z,25.07
2023-04-16T03:53:49.487Z,25.07
2023-04-16T03:54:49.569Z,25.07
2023-04-16T03:55:49.535Z,25.07
2023-04-16T03:56:49.531Z,25.07
2023-04-16T03:57:49.532Z,25.06
2023-04-16T03:58:49.545Z,25.07
2023-04-16T03:59:49.551Z,25.07
2023-04-16T04:00:49.584Z,25.06
2023-04-16T04:01:49.556Z,25.06
2023-04-16T04:02:49.658Z,25.06
2023-04-16T04:03:49.893Z,25.06
2023-04-16T04:04:49.725Z,25.06
2023-04-16T04:05:49.524Z,25.06
2023-04-16T04:06:49.520Z,25.05
2023-04-16T04:07:49.559Z,25.06
2023-04-16T04:08:49.553Z,25.05
2023-04-16T04:09:49.568Z,25.05
2023-04-16T04:10:49.564Z,25.06
2023-04-16T04:11:49.561Z,25.06
2023-04-16T04:12:49.578Z,25.05
2023-04-16T04:13:49.576Z,25.06
2023-04-16T04:14:49.590Z,25.05
2023-04-16T04:15:49.594Z,25.05
2023-04-16T04:16:49.565Z,25.05
2023-04-16T04:17:49.638Z,25.05
2023-04-16T04:18:49.577Z,25.06
2023-04-16T04:20:00.528Z,25.05
2023-04-16T04:20:50.623Z,25.05
2023-04-16T04:21:49.550Z,25.05
2023-04-16T04:22:49.537Z,25.05
2023-04-16T04:23:49.517Z,25.05
2023-04-16T04:24:49.543Z,25.05
2023-04-16T04:25:49.583Z,25.05
2023-04-16T04:26:49.548Z,25.05
2023-04-16T04:27:49.546Z,25.05
2023-04-16T04:28:49.483Z,25.05
2023-04-16T04:29:49.492Z,25.05
2023-04-16T04:30:49.527Z,25.05
2023-04-16T04:31:49.551Z,25.05
2023-04-16T04:32:49.515Z,25.04
2023-04-16T04:33:49.530Z,25.04
2023-04-16T04:34:49.486Z,25.04
2023-04-16T04:35:49.499Z,25.04
2023-04-16T04:36:49.440Z,25.05
2023-04-16T04:37:49.474Z,25.05
2023-04-16T04:38:49.502Z,25.05
2023-04-16T04:39:49.453Z,25.05
2023-04-16T04:40:49.460Z,25.05
2023-04-16T04:41:49.418Z,25.04
2023-04-16T04:42:49.429Z,25.04
2023-04-16T04:43:49.488Z,25.04
2023-04-16T04:44:49.446Z,25.04
2023-04-16T04:45:49.700Z,25.05
2023-04-16T04:46:49.391Z,25.05
2023-04-16T04:47:49.469Z,25.05
2023-04-16T04:48:49.364Z,25.05
2023-04-16T04:49:49.414Z,25.05
2023-04-16T04:50:49.389Z,25.04
2023-04-16T04:51:49.455Z,25.05
2023-04-16T04:52:49.373Z,25.04
2023-04-16T04:53:49.427Z,25.05
2023-04-16T04:54:49.416Z,25.04
2023-04-16T04:55:53.107Z,25.05
2023-04-16T04:56:49.357Z,25.04
2023-04-16T04:57:49.336Z,25.04
2023-04-16T04:58:49.392Z,25.05
2023-04-16T04:59:49.353Z,25.04
2023-04-16T05:00:49.356Z,25.05
2023-04-16T05:01:49.439Z,25.05
2023-04-16T05:02:49.427Z,25.05
2023-04-16T05:03:49.424Z,25.05
2023-04-16T05:04:49.365Z,25.05
2023-04-16T05:05:49.278Z,25.05
2023-04-16T05:06:49.279Z,25.05
2023-04-16T05:07:49.308Z,25.05
2023-04-16T05:08:49.295Z,25.04
2023-04-16T05:09:49.262Z,25.05
2023-04-16T05:10:49.250Z,25.05
2023-04-16T05:11:49.246Z,25.05
2023-04-16T05:12:49.262Z,25.05
2023-04-16T05:13:49.223Z,25.05
2023-04-16T05:14:49.241Z,25.05
2023-04-16T05:15:49.243Z,25.06
2023-04-16T05:16:49.224Z,25.05
2023-04-16T05:17:49.233Z,25.05
2023-04-16T05:18:49.209Z,25.06
2023-04-16T05:19:49.211Z,25.05
2023-04-16T05:20:49.173Z,25.06
2023-04-16T05:21:49.193Z,25.06
2023-04-16T05:22:49.198Z,25.05
2023-04-16T05:23:49.159Z,25.06
2023-04-16T05:24:49.134Z,25.06
2023-04-16T05:25:49.130Z,25.07
2023-04-16T05:26:49.151Z,25.06
2023-04-16T05:27:49.141Z,25.07
2023-04-16T05:28:49.127Z,25.06
2023-04-16T05:29:49.129Z,25.06
2023-04-16T05:30:49.145Z,25.06
2023-04-16T05:31:49.089Z,25.06
2023-04-16T05:32:49.118Z,25.06
2023-04-16T05:33:49.152Z,25.07
2023-04-16T05:34:49.104Z,25.06
2023-04-16T05:35:49.069Z,25.07
2023-04-16T05:36:49.114Z,25.07
2023-04-16T05:37:49.085Z,25.07
2023-04-16T05:38:49.088Z,25.07
2023-04-16T05:39:49.104Z,25.07
2023-04-16T05:40:49.116Z,25.07
2023-04-16T05:41:49.059Z,25.07
2023-04-16T05:42:49.110Z,25.07
2023-04-16T05:43:49.119Z,25.07
2023-04-16T05:44:49.133Z,25.07
2023-04-16T05:45:49.194Z,25.07
2023-04-16T05:46:49.191Z,25.08
2023-04-16T05:47:49.247Z,25.08
2023-04-16T05:48:49.290Z,25.08
2023-04-16T05:49:49.250Z,25.08
2023-04-16T05:50:49.306Z,25.08
2023-04-16T05:51:50.743Z,25.08
2023-04-16T05:52:49.303Z,25.08
2023-04-16T05:53:49.328Z,25.09
2023-04-16T05:54:49.338Z,25.09
2023-04-16T05:55:49.408Z,25.09
2023-04-16T05:56:49.373Z,25.09
2023-04-16T05:57:49.421Z,25.09
2023-04-16T05:58:49.416Z,25.10
2023-04-16T05:59:49.481Z,25.10
2023-04-16T06:00:49.469Z,25.09
2023-04-16T06:01:49.531Z,25.10
2023-04-16T06:02:49.667Z,25.12
2023-04-16T06:03:49.662Z,25.11
2023-04-16T06:04:49.608Z,25.11
2023-04-16T06:05:49.610Z,25.12
2023-04-16T06:06:49.724Z,25.12
2023-04-16T06:07:49.700Z,25.12
2023-04-16T06:08:49.742Z,25.13
2023-04-16T06:09:49.754Z,25.13
2023-04-16T06:10:49.731Z,25.14
2023-04-16T06:11:49.820Z,25.13
2023-04-16T06:12:49.812Z,25.15
2023-04-16T06:13:49.840Z,25.15
2023-04-16T06:14:49.863Z,25.15
2023-04-16T06:15:49.859Z,25.15
2023-04-16T06:16:49.852Z,25.16
2023-04-16T06:17:49.958Z,25.17
2023-04-16T06:18:49.867Z,25.18
2023-04-16T06:19:49.908Z,25.18
2023-04-16T06:20:49.931Z,25.18
2023-04-16T06:21:49.983Z,25.18
2023-04-16T06:22:50.044Z,25.19
2023-04-16T06:23:50.105Z,25.19
2023-04-16T06:24:50.156Z,25.19
2023-04-16T06:25:50.212Z,25.20
2023-04-16T06:26:50.205Z,25.21
2023-04-16T06:27:50.289Z,25.20
2023-04-16T06:28:50.295Z,25.21
2023-04-16T06:29:50.373Z,25.21
2023-04-16T06:30:50.378Z,25.21
2023-04-16T06:31:50.593Z,25.22
2023-04-16T06:32:50.538Z,25.22
2023-04-16T06:33:50.481Z,25.22
2023-04-16T06:34:50.526Z,25.22
2023-04-16T06:35:50.612Z,25.23
2023-04-16T06:36:50.603Z,25.24
2023-04-16T06:37:50.645Z,25.23
2023-04-16T06:38:50.726Z,25.24
2023-04-16T06:39:50.739Z,25.25
2023-04-16T06:40:50.777Z,25.25
2023-04-16T06:41:50.839Z,25.26
2023-04-16T06:42:50.876Z,25.26
2023-04-16T06:43:50.960Z,25.27
2023-04-16T06:44:51.000Z,25.27
2023-04-16T06:45:51.076Z,25.27
2023-04-16T06:46:51.120Z,25.28
2023-04-16T06:47:51.249Z,25.28
2023-04-16T06:48:51.192Z,25.29
2023-04-16T06:49:51.252Z,25.29
2023-04-16T06:50:51.316Z,25.29
2023-04-16T06:51:51.354Z,25.29
2023-04-16T06:52:51.379Z,25.31
2023-04-16T06:53:51.465Z,25.30
2023-04-16T06:54:51.571Z,25.31
2023-04-16T06:55:51.598Z,25.32
2023-04-16T06:56:51.656Z,25.32
2023-04-16T06:57:51.708Z,25.33
2023-04-16T06:58:51.780Z,25.33
2023-04-16T06:59:51.847Z,25.34
2023-04-16T07:00:51.925Z,25.34
2023-04-16T07:01:52.028Z,25.35
2023-04-16T07:02:52.093Z,25.37
2023-04-16T07:03:52.348Z,25.37
2023-04-16T07:04:52.133Z,25.38
2023-04-16T07:05:52.242Z,25.39
2023-04-16T07:06:52.249Z,25.40
2023-04-16T07:07:52.303Z,25.40
2023-04-16T07:08:52.369Z,25.41
2023-04-16T07:09:52.472Z,25.41
2023-04-16T07:10:52.433Z,25.42
2023-04-16T07:11:52.521Z,25.43
2023-04-16T07:12:52.547Z,25.43
2023-04-16T07:13:52.642Z,25.42
2023-04-16T07:14:52.666Z,25.44
2023-04-16T07:15:52.710Z,25.44
2023-04-16T07:16:52.851Z,25.44
2023-04-16T07:17:52.895Z,25.45
2023-04-16T07:18:52.875Z,25.45
2023-04-16T07:19:52.964Z,25.46
2023-04-16T07:20:52.992Z,25.46
2023-04-16T07:21:53.072Z,25.47
2023-04-16T07:22:53.100Z,25.48
2023-04-16T07:23:53.141Z,25.49
2023-04-16T07:24:53.215Z,25.50
2023-04-16T07:25:53.300Z,25.50
2023-04-16T07:26:53.314Z,25.51
2023-04-16T07:27:53.413Z,25.52
2023-04-16T07:28:53.421Z,25.54
2023-04-16T07:29:53.467Z,25.54
2023-04-16T07:30:53.542Z,25.54
2023-04-16T07:31:53.580Z,25.56
2023-04-16T07:32:53.667Z,25.57
2023-04-16T07:33:53.711Z,25.58
2023-04-16T07:34:53.775Z,25.59
2023-04-16T07:35:53.767Z,25.61
2023-04-16T07:36:53.879Z,25.61
2023-04-16T07:37:53.897Z,25.62
2023-04-16T07:38:53.908Z,25.63
2023-04-16T07:39:55.173Z,25.64
2023-04-16T07:40:53.951Z,25.65
2023-04-16T07:41:53.929Z,25.65
2023-04-16T07:42:53.931Z,25.67
2023-04-16T07:43:53.948Z,25.67
2023-04-16T07:44:53.889Z,25.68
2023-04-16T07:45:53.915Z,25.70
2023-04-16T07:46:53.986Z,25.71
2023-04-16T07:47:53.954Z,25.72
2023-04-16T07:48:53.945Z,25.73
2023-04-16T07:49:53.892Z,25.74
2023-04-16T07:50:53.812Z,25.74
2023-04-16T07:51:53.897Z,25.75
2023-04-16T07:52:53.828Z,25.75
2023-04-16T07:53:53.856Z,25.76
2023-04-16T07:54:53.841Z,25.76
2023-04-16T07:55:53.856Z,25.77
2023-04-16T07:56:53.809Z,25.77
2023-04-16T07:57:53.763Z,25.78
2023-04-16T07:58:53.817Z,25.79
2023-04-16T07:59:53.827Z,25.80
2023-04-16T08:00:53.761Z,25.80
2023-04-16T08:01:53.797Z,25.81
2023-04-16T08:02:53.896Z,25.82
2023-04-16T08:03:53.934Z,25.83
2023-04-16T08:04:53.769Z,25.83
2023-04-16T08:05:53.768Z,25.84
2023-04-16T08:06:53.731Z,25.85
2023-04-16T08:07:53.782Z,25.86
2023-04-16T08:08:53.718Z,25.87
2023-04-16T08:09:53.725Z,25.88
2023-04-16T08:10:53.724Z,25.90
2023-04-16T08:11:53.695Z,25.91
2023-04-16T08:12:53.703Z,25.93
2023-04-16T08:13:53.723Z,25.94
2023-04-16T08:14:53.720Z,25.94
2023-04-16T08:15:53.705Z,25.95
2023-04-16T08:16:53.680Z,25.96
2023-04-16T08:17:53.716Z,25.96
2023-04-16T08:18:53.673Z,25.97
2023-04-16T08:19:53.672Z,25.98
2023-04-16T08:20:53.676Z,25.99
2023-04-16T08:21:53.618Z,26.00
2023-04-16T08:22:53.640Z,26.00
2023-04-16T08:23:53.725Z,26.01
2023-04-16T08:24:53.614Z,26.01
2023-04-16T08:25:53.596Z,26.02
2023-04-16T08:26:53.611Z,26.04
2023-04-16T08:27:53.562Z,26.05
2023-04-16T08:28:53.601Z,26.05
2023-04-16T08:29:53.559Z,26.06
2023-04-16T08:30:53.587Z,26.07
2023-04-16T08:31:53.666Z,26.08
2023-04-16T08:32:53.580Z,26.09
2023-04-16T08:33:53.563Z,26.10
2023-04-16T08:34:53.565Z,26.10
2023-04-16T08:35:53.557Z,26.10
2023-04-16T08:36:53.528Z,26.11
2023-04-16T08:37:53.544Z,26.12
2023-04-16T08:38:53.510Z,26.12
2023-04-16T08:39:53.482Z,26.13
2023-04-16T08:40:53.508Z,26.13
2023-04-16T08:41:54.529Z,26.12
2023-04-16T08:42:53.461Z,26.14
2023-04-16T08:43:53.532Z,26.14
2023-04-16T08:44:53.524Z,26.14
2023-04-16T08:45:53.498Z,26.14
2023-04-16T08:46:53.590Z,26.13
2023-04-16T08:47:53.519Z,26.13
2023-04-16T08:48:53.471Z,26.15
2023-04-16T08:49:53.468Z,26.15
2023-04-16T08:50:53.496Z,26.15
2023-04-16T08:51:53.468Z,26.16
2023-04-16T08:52:53.418Z,26.16
2023-04-16T08:53:53.425Z,26.18
2023-04-16T08:54:56.833Z,26.18
2023-04-16T08:55:53.428Z,26.19
2023-04-16T08:56:53.419Z,26.20
2023-04-16T08:57:53.357Z,26.21
2023-04-16T08:58:53.420Z,26.22
2023-04-16T08:59:53.414Z,26.23
2023-04-16T09:00:53.367Z,26.25
2023-04-16T09:01:53.472Z,26.26
2023-04-16T09:02:53.520Z,26.28
2023-04-16T09:03:53.590Z,26.28
2023-04-16T09:04:53.405Z,26.29
2023-04-16T09:05:53.350Z,26.30
2023-04-16T09:06:53.403Z,26.32
2023-04-16T09:07:53.421Z,26.31
2023-04-16T09:08:53.478Z,26.32
2023-04-16T09:09:53.298Z,26.33
2023-04-16T09:10:53.384Z,26.34
2023-04-16T09:11:53.334Z,26.35
2023-04-16T09:12:53.290Z,26.36
2023-04-16T09:13:53.302Z,26.37
2023-04-16T09:14:53.296Z,26.37
2023-04-16T09:15:53.336Z,26.37
2023-04-16T09:16:53.303Z,26.39
2023-04-16T09:17:53.294Z,26.40
2023-04-16T09:18:53.230Z,26.42
2023-04-16T09:19:53.235Z,26.42
2023-04-16T09:20:53.256Z,26.43
2023-04-16T09:21:53.262Z,26.43
2023-04-16T09:22:53.308Z,26.44
2023-04-16T09:23:53.192Z,26.46
2023-04-16T09:24:53.239Z,26.46
2023-04-16T09:25:53.216Z,26.46
2023-04-16T09:26:53.217Z,26.47
2023-04-16T09:27:53.184Z,26.48
2023-04-16T09:28:53.210Z,26.50
2023-04-16T09:29:53.162Z,26.50
2023-04-16T09:30:53.215Z,26.51
2023-04-16T09:31:53.205Z,26.53
2023-04-16T09:32:53.243Z,26.54
2023-04-16T09:33:53.124Z,26.55
2023-04-16T09:34:53.138Z,26.56
2023-04-16T09:35:53.128Z,26.56
2023-04-16T09:36:53.229Z,26.57
2023-04-16T09:37:53.160Z,26.59
2023-04-16T09:38:54.507Z,26.60
2023-04-16T09:39:53.278Z,26.61
2023-04-16T09:40:53.353Z,26.63
2023-04-16T09:41:53.395Z,26.63
2023-04-16T09:42:53.423Z,26.64
2023-04-16T09:43:53.512Z,26.66
2023-04-16T09:44:53.515Z,26.67
2023-04-16T09:45:53.818Z,26.69
2023-04-16T09:46:53.628Z,26.70
2023-04-16T09:47:53.679Z,26.71
2023-04-16T09:48:53.697Z,26.72
2023-04-16T09:49:53.799Z,26.74
2023-04-16T09:50:53.824Z,26.75
2023-04-16T09:51:53.903Z,26.76
2023-04-16T09:52:53.997Z,26.76
2023-04-16T09:53:54.027Z,26.77
2023-04-16T09:54:54.118Z,26.78
2023-04-16T09:55:54.255Z,26.79
2023-04-16T09:56:54.169Z,26.81
2023-04-16T09:57:54.275Z,26.81
2023-04-16T09:58:54.380Z,26.83
2023-04-16T09:59:54.371Z,26.84
2023-04-16T10:00:54.483Z,26.86
2023-04-16T10:02:13.923Z,26.87
2023-04-16T10:02:55.523Z,26.88
2023-04-16T10:03:54.680Z,26.90
2023-04-16T10:04:54.588Z,26.93
2023-04-16T10:05:54.479Z,26.94
2023-04-16T10:06:54.475Z,26.96
2023-04-16T10:07:54.490Z,26.98
2023-04-16T10:08:54.438Z,27.00
2023-04-16T10:09:54.436Z,27.01
2023-04-16T10:10:54.474Z,27.02
2023-04-16T10:11:54.441Z,27.04
2023-04-16T10:12:54.425Z,27.05
2023-04-16T10:13:54.431Z,27.06
2023-04-16T10:14:54.475Z,27.08
2023-04-16T10:15:54.566Z,27.08
2023-04-16T10:16:54.572Z,27.09
2023-04-16T10:17:54.644Z,27.10
2023-04-16T10:18:54.656Z,27.10
2023-04-16T10:19:54.678Z,27.10
2023-04-16T10:20:54.745Z,27.10
2023-04-16T10:21:54.782Z,27.09
2023-04-16T10:22:54.844Z,27.09
2023-04-16T10:23:54.910Z,27.09
2023-04-16T10:24:54.926Z,27.09
2023-04-16T10:25:56.968Z,27.08
2023-04-16T10:26:54.944Z,27.09
2023-04-16T10:27:54.932Z,27.09
2023-04-16T10:28:54.947Z,27.08
2023-04-16T10:29:54.945Z,27.08
2023-04-16T10:30:54.966Z,27.08
2023-04-16T10:31:54.916Z,27.08
2023-04-16T10:32:55.075Z,27.09
2023-04-16T10:33:54.867Z,27.09
2023-04-16T10:34:54.889Z,27.09
2023-04-16T10:36:05.009Z,27.09
2023-04-16T10:36:55.951Z,27.10
2023-04-16T10:37:54.883Z,27.10
2023-04-16T10:38:54.874Z,27.11
2023-04-16T10:39:54.853Z,27.12
2023-04-16T10:40:54.874Z,27.13
2023-04-16T10:41:54.818Z,27.15
2023-04-16T10:42:54.834Z,27.15
2023-04-16T10:43:54.789Z,27.16
2023-04-16T10:44:54.833Z,27.17
2023-04-16T10:45:54.899Z,27.17
2023-04-16T10:46:54.858Z,27.17
2023-04-16T10:47:54.832Z,27.18
2023-04-16T10:48:54.846Z,27.19
2023-04-16T10:49:54.868Z,27.19
2023-04-16T10:50:54.917Z,27.19
2023-04-16T10:51:54.946Z,27.19
2023-04-16T10:52:54.966Z,27.20
2023-04-16T10:53:55.086Z,27.21
2023-04-16T10:54:55.045Z,27.21
2023-04-16T10:55:55.113Z,27.22
2023-04-16T10:56:55.162Z,27.23
2023-04-16T10:57:55.165Z,27.23
2023-04-16T10:58:55.247Z,27.23
2023-04-16T10:59:55.260Z,27.23
2023-04-16T11:00:55.290Z,27.23
2023-04-16T11:01:55.383Z,27.22
2023-04-16T11:02:55.416Z,27.22
2023-04-16T11:03:55.548Z,27.22
2023-04-16T11:04:55.434Z,27.22
2023-04-16T11:05:55.489Z,27.23
2023-04-16T11:06:55.501Z,27.23
2023-04-16T11:07:55.563Z,27.22
2023-04-16T11:08:55.606Z,27.22
2023-04-16T11:09:55.566Z,27.23
2023-04-16T11:10:55.594Z,27.23
2023-04-16T11:11:55.636Z,27.23
2023-04-16T11:12:55.755Z,27.24
2023-04-16T11:13:55.699Z,27.24
2023-04-16T11:14:55.815Z,27.23
2023-04-16T11:15:55.769Z,27.23
2023-04-16T11:16:55.776Z,27.24
2023-04-16T11:17:55.842Z,27.23
2023-04-16T11:18:56.902Z,27.23
2023-04-16T11:19:55.900Z,27.23
2023-04-16T11:20:55.917Z,27.23
2023-04-16T11:21:55.907Z,27.21
2023-04-16T11:22:55.954Z,27.21
2023-04-16T11:23:55.938Z,27.21
2023-04-16T11:24:56.042Z,27.20
2023-04-16T11:25:56.038Z,27.20
2023-04-16T11:26:56.085Z,27.19
2023-04-16T11:27:56.092Z,27.18
2023-04-16T11:28:56.189Z,27.18
2023-04-16T11:29:56.119Z,27.16
2023-04-16T11:30:56.234Z,27.16
2023-04-16T11:31:56.227Z,27.16
2023-04-16T11:32:56.342Z,27.15
2023-04-16T11:33:56.287Z,27.15
2023-04-16T11:34:56.344Z,27.14
2023-04-16T11:35:56.334Z,27.14
2023-04-16T11:36:56.349Z,27.13
2023-04-16T11:37:56.383Z,27.14
2023-04-16T11:38:56.537Z,27.14
2023-04-16T11:39:56.491Z,27.13
2023-04-16T11:40:56.492Z,27.13
2023-04-16T11:41:56.617Z,27.13
2023-04-16T11:42:57.655Z,27.15
2023-04-16T11:43:56.570Z,27.14
2023-04-16T11:44:56.613Z,27.15
2023-04-16T11:45:56.608Z,27.16
2023-04-16T11:46:56.755Z,27.15
2023-04-16T11:47:56.736Z,27.15
2023-04-16T11:48:56.741Z,27.15
2023-04-16T11:49:56.752Z,27.16
2023-04-16T11:50:56.778Z,27.16
2023-04-16T11:51:56.777Z,27.16
2023-04-16T11:52:56.837Z,27.17
2023-04-16T11:53:56.836Z,27.17
2023-04-16T11:54:56.856Z,27.16
2023-04-16T11:55:56.923Z,27.17
2023-04-16T11:56:56.903Z,27.17
2023-04-16T11:57:56.917Z,27.17
2023-04-16T11:58:56.979Z,27.16
2023-04-16T12:00:02.099Z,27.17
2023-04-16T12:00:57.967Z,27.16
2023-04-16T12:01:57.003Z,27.15
2023-04-16T12:02:57.069Z,27.16
2023-04-16T12:03:57.128Z,27.15
2023-04-16T12:04:56.981Z,27.16
2023-04-16T12:05:56.918Z,27.15
2023-04-16T12:06:56.928Z,27.15
2023-04-16T12:07:56.932Z,27.15
2023-04-16T12:08:56.883Z,27.15
2023-04-16T12:09:56.953Z,27.15
2023-04-16T12:10:56.889Z,27.15
2023-04-16T12:11:56.884Z,27.15
2023-04-16T12:12:56.917Z,27.14
2023-04-16T12:13:56.866Z,27.14
2023-04-16T12:14:56.969Z,27.15
2023-04-16T12:15:56.904Z,27.14
2023-04-16T12:16:56.960Z,27.14
2023-04-16T12:17:56.912Z,27.13
2023-04-16T12:18:56.944Z,27.12
2023-04-16T12:19:56.977Z,27.11
2023-04-16T12:20:56.975Z,27.12
2023-04-16T12:21:57.026Z,27.11
2023-04-16T12:22:57.042Z,27.11
2023-04-16T12:23:57.116Z,27.11
2023-04-16T12:24:57.147Z,27.11
2023-04-16T12:25:57.101Z,27.12
2023-04-16T12:26:57.171Z,27.11
2023-04-16T12:27:57.171Z,27.11
2023-04-16T12:28:57.238Z,27.11
2023-04-16T12:29:57.234Z,27.11
2023-04-16T12:30:57.261Z,27.11
2023-04-16T12:31:57.295Z,27.11
2023-04-16T12:32:59.102Z,27.11
2023-04-16T12:33:57.381Z,27.11
2023-04-16T12:34:57.374Z,27.10
2023-04-16T12:35:57.392Z,27.10
2023-04-16T12:36:57.443Z,27.10
2023-04-16T12:37:57.464Z,27.10
2023-04-16T12:38:57.503Z,27.09
2023-04-16T12:39:57.596Z,27.09
2023-04-16T12:40:57.669Z,27.09
2023-04-16T12:41:57.571Z,27.09
2023-04-16T12:42:57.643Z,27.09
2023-04-16T12:43:57.759Z,27.09
2023-04-16T12:44:57.693Z,27.09
2023-04-16T12:45:57.741Z,27.09
2023-04-16T12:46:57.747Z,27.09
2023-04-16T12:47:57.797Z,27.09
2023-04-16T12:48:57.812Z,27.10
2023-04-16T12:49:57.830Z,27.10
2023-04-16T12:50:57.942Z,27.10
2023-04-16T12:51:57.910Z,27.10
2023-04-16T12:52:57.896Z,27.10